createdAt,value
2023-04-03T00:01:05.376Z,27.15
2023-04-03T00:03:32.137Z,25.92
2023-04-03T00:05:59.125Z,28.27
2023-04-03T00:08:25.878Z,25.92
2023-04-03T00:10:53.087Z,21.35
2023-04-03T00:13:19.713Z,24.75
2023-04-03T00:15:46.798Z,23.83
2023-04-03T00:18:13.717Z,20.00
2023-04-03T00:20:40.639Z,20.58
2023-04-03T00:23:10.782Z,18.95
2023-04-03T00:25:37.683Z,19.85
2023-04-03T00:28:05.647Z,23.00
2023-04-03T00:30:40.878Z,21.85
2023-04-03T00:35:35.619Z,21.00
2023-04-03T00:38:02.399Z,22.38
2023-04-03T00:40:36.540Z,23.08
2023-04-03T00:43:12.411Z,20.02
2023-04-03T00:45:44.511Z,21.38
2023-04-03T00:48:16.979Z,24.25
2023-04-03T00:50:44.540Z,22.20
2023-04-03T00:53:16.446Z,26.02
2023-04-03T00:55:45.312Z,20.55
2023-04-03T00:58:13.213Z,27.38
2023-04-03T01:00:42.147Z,21.52
2023-04-03T01:03:09.130Z,23.38
2023-04-03T01:05:36.451Z,25.83
2023-04-03T01:08:03.207Z,26.55
2023-04-03T01:10:29.905Z,25.27
2023-04-03T01:12:56.792Z,19.95
2023-04-03T01:15:26.724Z,23.60
2023-04-03T01:17:57.444Z,22.50
2023-04-03T01:20:34.313Z,23.80
2023-04-03T01:23:10.726Z,28.15
2023-04-03T01:25:49.391Z,25.15
2023-04-03T01:28:31.707Z,23.60
2023-04-03T01:31:16.466Z,21.05
2023-04-03T01:33:43.783Z,18.37
2023-04-03T01:36:11.478Z,22.13
2023-04-03T01:38:38.544Z,21.67
2023-04-03T01:41:05.522Z,22.67
2023-04-03T01:43:32.223Z,21.63
2023-04-03T01:45:58.920Z,22.73
2023-04-03T01:48:25.645Z,23.27
2023-04-03T01:50:52.361Z,20.42
2023-04-03T01:53:19.346Z,20.33
2023-04-03T01:55:46.317Z,20.50
2023-04-03T01:58:13.079Z,21.13
2023-04-03T02:00:39.864Z,23.50
2023-04-03T02:03:06.635Z,22.17
2023-04-03T02:05:33.958Z,21.70
2023-04-03T02:08:04.417Z,21.73
2023-04-03T02:10:31.168Z,21.45
2023-04-03T02:13:01.130Z,20.95
2023-04-03T02:15:28.008Z,21.15
2023-04-03T02:17:55.257Z,27.10
2023-04-03T02:20:22.172Z,20.35
2023-04-03T02:22:49.343Z,25.85
2023-04-03T02:25:18.912Z,22.10
2023-04-03T02:27:45.756Z,19.88
2023-04-03T02:30:12.934Z,23.10
2023-04-03T02:32:39.588Z,20.50
2023-04-03T02:35:07.112Z,21.45
2023-04-03T02:37:33.937Z,21.48
2023-04-03T02:40:00.729Z,28.67
2023-04-03T02:42:27.475Z,24.02
2023-04-03T02:44:54.460Z,21.73
2023-04-03T02:47:21.264Z,24.67
2023-04-03T02:49:47.948Z,19.73
2023-04-03T02:52:15.140Z,24.55
2023-04-03T02:54:41.957Z,28.52
2023-04-03T02:57:10.265Z,21.05
2023-04-03T02:59:38.250Z,23.30
2023-04-03T03:02:04.991Z,21.95
2023-04-03T03:04:31.812Z,22.42
2023-04-03T03:06:58.449Z,25.55
2023-04-03T03:09:25.081Z,27.65
2023-04-03T03:11:51.742Z,28.75
2023-04-03T03:14:18.575Z,27.10
2023-04-03T03:16:45.534Z,24.30
2023-04-03T03:19:12.241Z,22.13
2023-04-03T03:21:42.162Z,24.73
2023-04-03T03:24:08.989Z,23.25
2023-04-03T03:26:36.002Z,21.00
2023-04-03T03:29:02.832Z,21.05
2023-04-03T03:31:29.622Z,23.58
2023-04-03T03:33:56.440Z,23.92
2023-04-03T03:36:23.304Z,20.13
2023-04-03T03:38:52.729Z,23.35
2023-04-03T03:41:19.335Z,23.33
2023-04-03T03:43:46.322Z,19.85
2023-04-03T03:46:16.144Z,25.50
2023-04-03T03:48:42.857Z,24.13
2023-04-03T03:51:09.592Z,21.58
2023-04-03T03:53:36.351Z,21.20
2023-04-03T03:56:03.163Z,22.17
2023-04-03T03:58:29.936Z,22.10
2023-04-03T04:00:56.705Z,24.15
2023-04-03T04:03:43.352Z,22.48
2023-04-03T04:06:10.169Z,21.83
2023-04-03T04:08:36.942Z,22.35
2023-04-03T04:11:03.583Z,22.10
2023-04-03T04:13:30.264Z,20.83
2023-04-03T04:15:56.973Z,23.50
2023-04-03T04:18:25.066Z,26.83
2023-04-03T04:20:51.806Z,23.35
2023-04-03T04:23:19.490Z,24.65
2023-04-03T04:25:47.689Z,20.50
2023-04-03T04:28:14.500Z,27.13
2023-04-03T04:30:41.283Z,25.27
2023-04-03T04:33:08.182Z,21.48
2023-04-03T04:35:35.240Z,23.42
2023-04-03T04:38:02.735Z,23.55
2023-04-03T04:40:29.993Z,23.88
2023-04-03T04:42:56.929Z,22.13
2023-04-03T04:45:23.741Z,22.13
2023-04-03T04:47:52.735Z,23.05
2023-04-03T04:50:19.909Z,24.60
2023-04-03T04:52:46.713Z,21.98
2023-04-03T04:55:13.600Z,24.65
2023-04-03T04:57:40.535Z,21.30
2023-04-03T05:00:07.985Z,20.73
2023-04-03T05:02:34.929Z,25.42
2023-04-03T05:05:04.450Z,21.63
2023-04-03T05:07:31.854Z,22.83
2023-04-03T05:09:58.525Z,25.90
2023-04-03T05:12:25.289Z,24.80
2023-04-03T05:14:51.999Z,22.10
2023-04-03T05:17:18.715Z,26.90
2023-04-03T05:19:45.640Z,20.17
2023-04-03T05:22:12.401Z,20.02
2023-04-03T05:24:39.248Z,21.58
2023-04-03T05:27:06.131Z,27.65
2023-04-03T05:29:32.834Z,31.27
2023-04-03T05:31:59.758Z,24.92
2023-04-03T05:34:26.663Z,21.52
2023-04-03T05:36:53.538Z,22.45
2023-04-03T05:39:20.471Z,23.70
2023-04-03T05:41:47.377Z,22.42
2023-04-03T05:44:14.412Z,22.08
2023-04-03T05:46:41.212Z,29.52
2023-04-03T05:49:08.119Z,24.00
2023-04-03T05:51:36.347Z,22.63
2023-04-03T05:54:13.167Z,21.15
2023-04-03T05:56:39.822Z,19.42
2023-04-03T05:59:06.597Z,19.30
2023-04-03T06:01:33.421Z,18.73
2023-04-03T06:04:00.300Z,16.42
2023-04-03T06:06:27.262Z,22.60
2023-04-03T06:08:54.217Z,21.17
2023-04-03T06:11:22.627Z,30.10
2023-04-03T06:13:49.363Z,24.48
2023-04-03T06:16:16.594Z,19.42
2023-04-03T06:18:43.567Z,22.27
2023-04-03T06:21:10.276Z,22.50
2023-04-03T06:23:37.124Z,22.23
2023-04-03T06:26:04.044Z,21.52
2023-04-03T06:28:31.302Z,27.20
2023-04-03T06:30:58.156Z,52.72
2023-04-03T06:33:24.898Z,43.00
2023-04-03T06:35:57.917Z,22.02
2023-04-03T06:38:24.762Z,23.15
2023-04-03T06:40:52.794Z,29.02
2023-04-03T06:43:19.686Z,23.88
2023-04-03T06:45:46.407Z,23.58
2023-04-03T06:48:14.032Z,25.70
2023-04-03T06:50:41.131Z,19.73
2023-04-03T06:53:08.211Z,19.17
2023-04-03T06:55:35.630Z,22.60
2023-04-03T06:58:03.186Z,22.02
2023-04-03T07:00:29.916Z,20.58
2023-04-03T07:02:57.760Z,21.83
2023-04-03T07:05:25.821Z,17.67
2023-04-03T07:07:52.838Z,26.58
2023-04-03T07:10:19.798Z,22.13
2023-04-03T07:12:46.404Z,23.25
2023-04-03T07:15:14.007Z,21.00
2023-04-03T07:17:41.393Z,32.05
2023-04-03T07:20:09.279Z,23.00
2023-04-03T07:22:36.062Z,25.30
2023-04-03T07:25:03.842Z,24.75
2023-04-03T07:27:30.938Z,20.38
2023-04-03T07:29:57.606Z,21.20
2023-04-03T07:32:24.398Z,20.77
2023-04-03T07:34:51.385Z,17.98
2023-04-03T07:37:19.052Z,21.52
2023-04-03T07:39:46.191Z,16.52
2023-04-03T07:42:13.849Z,17.77
2023-04-03T07:44:41.537Z,20.23
2023-04-03T07:47:08.984Z,20.42
2023-04-03T07:49:39.143Z,19.35
2023-04-03T07:52:06.641Z,25.40
2023-04-03T07:54:33.656Z,18.85
2023-04-03T07:57:00.481Z,19.17
2023-04-03T07:59:27.248Z,21.65
2023-04-03T08:01:54.126Z,16.33
2023-04-03T08:04:20.874Z,17.98
2023-04-03T08:06:47.709Z,17.52
2023-04-03T08:09:17.207Z,17.63
2023-04-03T08:11:44.304Z,18.95
2023-04-03T08:14:16.691Z,22.00
2023-04-03T08:16:47.807Z,26.92
2023-04-03T08:19:25.383Z,19.92
2023-04-03T08:21:55.104Z,16.80
2023-04-03T08:24:22.047Z,16.63
2023-04-03T08:26:48.804Z,15.38
2023-04-03T08:29:15.618Z,13.90
2023-04-03T08:31:42.348Z,17.42
2023-04-03T08:34:09.777Z,18.83
2023-04-03T08:36:36.528Z,18.45
2023-04-03T08:39:03.594Z,18.73
2023-04-03T08:41:41.103Z,18.80
2023-04-03T08:44:27.637Z,20.67
2023-04-03T08:47:03.851Z,15.57
2023-04-03T08:49:39.381Z,19.88
2023-04-03T08:52:13.922Z,15.27
2023-04-03T08:54:56.784Z,15.23
2023-04-03T08:57:32.084Z,15.55
2023-04-03T09:02:31.670Z,16.52
2023-04-03T09:04:59.277Z,17.45
2023-04-03T09:07:44.513Z,14.68
2023-04-03T09:10:16.169Z,15.23
2023-04-03T09:12:49.233Z,14.60
2023-04-03T09:15:35.483Z,11.18
2023-04-03T09:18:29.825Z,13.30
2023-04-03T09:21:14.811Z,16.83
2023-04-03T09:23:52.346Z,15.48
2023-04-03T09:26:22.830Z,19.20
2023-04-03T09:28:50.751Z,24.67
2023-04-03T09:31:27.609Z,20.83
2023-04-03T09:33:58.478Z,17.50
2023-04-03T09:36:44.984Z,20.52
2023-04-03T09:39:15.777Z,15.23
2023-04-03T09:41:43.831Z,19.17
2023-04-03T09:44:25.856Z,16.45
2023-04-03T09:46:52.935Z,16.38
2023-04-03T09:49:20.797Z,16.48
2023-04-03T09:51:48.135Z,15.77
2023-04-03T09:54:42.173Z,15.48
2023-04-03T09:57:13.011Z,19.48
2023-04-03T09:59:45.273Z,19.02
2023-04-03T10:02:31.175Z,17.98
2023-04-03T10:05:08.712Z,15.20
2023-04-03T10:07:38.354Z,15.75
2023-04-03T10:10:21.286Z,14.18
2023-04-03T10:12:48.256Z,16.95
2023-04-03T10:15:17.160Z,16.52
2023-04-03T10:18:04.293Z,18.55
2023-04-03T10:20:40.278Z,17.30
2023-04-03T10:23:20.999Z,17.15
2023-04-03T10:26:05.386Z,15.13
2023-04-03T10:28:56.279Z,19.20
2023-04-03T10:31:28.552Z,19.27
2023-04-03T10:33:58.230Z,16.63
2023-04-03T10:36:28.927Z,17.88
2023-04-03T10:38:58.631Z,18.55
2023-04-03T10:41:37.455Z,14.75
2023-04-03T10:44:14.391Z,15.55
2023-04-03T10:46:54.489Z,14.13
2023-04-03T10:49:57.101Z,15.02
2023-04-03T10:52:44.124Z,14.50
2023-04-03T10:55:36.124Z,16.75
2023-04-03T10:58:04.356Z,14.38
2023-04-03T11:00:46.764Z,18.92
2023-04-03T11:03:27.881Z,18.33
2023-04-03T11:05:56.657Z,15.20
2023-04-03T11:08:35.990Z,16.55
2023-04-03T11:11:18.501Z,18.60
2023-04-03T11:14:04.082Z,18.02
2023-04-03T11:16:43.281Z,18.95
2023-04-03T11:19:24.556Z,18.02
2023-04-03T11:21:59.215Z,20.48
2023-04-03T11:24:31.018Z,16.02
2023-04-03T11:26:59.885Z,14.50
2023-04-03T11:29:35.433Z,14.27
2023-04-03T11:32:40.236Z,14.30
2023-04-03T11:35:08.437Z,17.30
2023-04-03T11:37:45.033Z,26.20
2023-04-03T11:40:20.883Z,21.55
2023-04-03T11:42:50.135Z,20.20
2023-04-03T11:45:28.226Z,23.25
2023-04-03T11:48:21.014Z,17.30
2023-04-03T11:53:18.211Z,14.25
2023-04-03T11:55:50.937Z,21.02
2023-04-03T11:58:38.154Z,16.80
2023-04-03T12:01:10.478Z,13.40
2023-04-03T12:03:46.998Z,14.15
2023-04-03T12:06:17.897Z,13.07
2023-04-03T12:08:55.373Z,17.90
2023-04-03T12:11:28.171Z,19.48
2023-04-03T12:13:57.973Z,20.85
2023-04-03T12:16:28.587Z,19.27
2023-04-03T12:19:03.265Z,15.63
2023-04-03T12:21:33.481Z,14.85
2023-04-03T12:24:06.395Z,13.60
2023-04-03T12:26:58.381Z,13.75
2023-04-03T12:29:34.378Z,13.70
2023-04-03T12:32:32.534Z,12.02
2023-04-03T12:35:18.132Z,15.48
2023-04-03T12:38:14.729Z,14.23
2023-04-03T12:41:00.149Z,18.77
2023-04-03T12:43:35.860Z,13.15
2023-04-03T12:46:08.692Z,11.65
2023-04-03T12:48:46.391Z,10.73
2023-04-03T12:51:23.416Z,13.98
2023-04-03T12:53:51.514Z,15.40
2023-04-03T12:56:26.242Z,11.80
2023-04-03T12:58:55.193Z,15.18
2023-04-03T13:01:24.656Z,17.75
2023-04-03T13:03:54.675Z,15.88
2023-04-03T13:06:48.004Z,16.92
2023-04-03T13:09:23.881Z,18.42
2023-04-03T13:11:54.378Z,14.65
2023-04-03T13:14:26.343Z,15.80
2023-04-03T13:17:02.279Z,18.85
2023-04-03T13:19:29.980Z,15.80
2023-04-03T13:22:08.093Z,19.08
2023-04-03T13:24:37.994Z,16.02
2023-04-03T13:27:05.909Z,11.85
2023-04-03T13:29:35.658Z,10.63
2023-04-03T13:32:04.234Z,13.88
2023-04-03T13:34:45.225Z,11.32
2023-04-03T13:37:23.903Z,13.73
2023-04-03T13:40:03.747Z,17.55
2023-04-03T13:42:32.765Z,14.25
2023-04-03T13:45:21.431Z,14.30
2023-04-03T13:47:50.834Z,12.65
2023-04-03T13:50:21.771Z,17.40
2023-04-03T13:52:49.029Z,19.75
2023-04-03T13:55:26.751Z,14.75
2023-04-03T13:58:01.646Z,13.95
2023-04-03T14:00:54.018Z,13.20
2023-04-03T14:03:27.210Z,24.33
2023-04-03T14:05:54.485Z,11.60
2023-04-03T14:08:29.275Z,18.67
2023-04-03T14:11:03.194Z,9.60
2023-04-03T14:13:32.082Z,9.57
2023-04-03T14:16:05.720Z,10.02
2023-04-03T14:18:40.228Z,13.18
2023-04-03T14:21:06.831Z,14.32
2023-04-03T14:23:34.127Z,13.13
2023-04-03T14:26:01.421Z,14.10
2023-04-03T14:28:28.229Z,15.32
2023-04-03T14:30:55.067Z,10.40
2023-04-03T14:33:23.097Z,8.90
2023-04-03T14:35:50.121Z,12.98
2023-04-03T14:38:35.205Z,15.65
2023-04-03T14:41:13.505Z,13.93
2023-04-03T14:43:43.430Z,14.23
2023-04-03T14:46:43.074Z,10.98
2023-04-03T14:49:17.292Z,9.00
2023-04-03T14:51:44.094Z,8.45
2023-04-03T14:54:20.781Z,7.05
2023-04-03T14:56:48.841Z,8.68
2023-04-03T14:59:16.732Z,17.00
2023-04-03T15:01:43.532Z,22.08
2023-04-03T15:04:19.347Z,8.13
2023-04-03T15:06:47.213Z,9.88
2023-04-03T15:09:40.573Z,7.28
2023-04-03T15:12:09.822Z,11.73
2023-04-03T15:14:42.316Z,12.05
2023-04-03T15:17:18.223Z,8.68
2023-04-03T15:19:45.494Z,14.57
2023-04-03T15:22:16.948Z,6.30
2023-04-03T15:24:44.498Z,7.63
2023-04-03T15:27:12.859Z,7.38
2023-04-03T15:29:41.293Z,6.03
2023-04-03T15:32:08.138Z,11.10
2023-04-03T15:34:34.996Z,5.40
2023-04-03T15:37:02.039Z,4.07
2023-04-03T15:39:28.912Z,5.00
2023-04-03T15:41:56.274Z,11.45
2023-04-03T15:44:23.442Z,7.03
2023-04-03T15:46:52.496Z,10.23
2023-04-03T15:49:20.209Z,7.70
2023-04-03T15:51:47.127Z,10.70
2023-04-03T15:54:19.505Z,9.52
2023-04-03T15:56:46.329Z,5.63
2023-04-03T15:59:13.101Z,15.85
2023-04-03T16:01:40.152Z,9.63
2023-04-03T16:04:08.657Z,14.60
2023-04-03T16:06:35.451Z,9.95
2023-04-03T16:09:02.212Z,13.45
2023-04-03T16:11:29.060Z,8.70
2023-04-03T16:13:56.395Z,6.28
2023-04-03T16:16:24.812Z,5.32
2023-04-03T16:18:51.689Z,6.90
2023-04-03T16:21:18.568Z,5.45
2023-04-03T16:23:46.144Z,10.82
2023-04-03T16:26:13.431Z,11.43
2023-04-03T16:28:40.242Z,12.48
2023-04-03T16:31:07.870Z,10.85
2023-04-03T16:33:35.033Z,12.40
2023-04-03T16:36:02.168Z,8.57
2023-04-03T16:38:29.023Z,9.50
2023-04-03T16:40:57.951Z,8.73
2023-04-03T16:43:24.637Z,12.07
2023-04-03T16:45:51.317Z,14.05
2023-04-03T16:48:18.381Z,21.58
2023-04-03T16:50:54.445Z,15.05
2023-04-03T16:53:22.764Z,19.90
2023-04-03T16:55:49.896Z,11.32
2023-04-03T16:58:16.952Z,12.25
2023-04-03T17:00:43.878Z,9.77
2023-04-03T17:03:11.037Z,10.93
2023-04-03T17:05:38.312Z,7.85
2023-04-03T17:08:05.797Z,9.88
2023-04-03T17:10:34.632Z,9.63
2023-04-03T17:13:01.408Z,7.20
2023-04-03T17:15:28.308Z,5.85
2023-04-03T17:17:55.360Z,8.95
2023-04-03T17:20:22.569Z,8.35
2023-04-03T17:22:52.573Z,7.00
2023-04-03T17:25:19.650Z,11.05
2023-04-03T17:27:46.306Z,6.05
2023-04-03T17:30:13.290Z,9.90
2023-04-03T17:32:39.983Z,11.55
2023-04-03T17:35:08.955Z,7.10
2023-04-03T17:37:37.127Z,7.25
2023-04-03T17:40:04.021Z,7.25
2023-04-03T17:42:31.613Z,7.50
2023-04-03T17:44:59.186Z,9.25
2023-04-03T17:47:26.122Z,7.13
2023-04-03T17:49:52.970Z,7.57
2023-04-03T17:52:19.755Z,10.15
2023-04-03T17:54:46.519Z,9.77
2023-04-03T17:57:14.691Z,11.63
2023-04-03T17:59:41.788Z,9.55
2023-04-03T18:02:08.576Z,9.80
2023-04-03T18:04:38.810Z,14.40
2023-04-03T18:07:10.142Z,7.88
2023-04-03T18:09:37.678Z,16.25
2023-04-03T18:12:06.349Z,9.20
2023-04-03T18:14:34.697Z,10.27
2023-04-03T18:17:01.550Z,11.73
2023-04-03T18:19:29.936Z,10.55
2023-04-03T18:21:58.629Z,10.82
2023-04-03T18:24:26.345Z,7.82
2023-04-03T18:27:02.568Z,9.07
2023-04-03T18:29:31.664Z,7.82
2023-04-03T18:31:59.049Z,11.18
2023-04-03T18:34:30.175Z,10.13
2023-04-03T18:36:57.109Z,10.13
2023-04-03T18:39:24.944Z,13.10
2023-04-03T18:41:53.752Z,22.98
2023-04-03T18:44:23.967Z,15.20
2023-04-03T18:46:52.132Z,13.05
2023-04-03T18:49:18.829Z,13.35
2023-04-03T18:51:46.010Z,20.95
2023-04-03T18:54:12.695Z,17.27
2023-04-03T18:56:39.373Z,16.13
2023-04-03T18:59:06.107Z,18.17
2023-04-03T19:01:34.568Z,17.40
2023-04-03T19:04:01.736Z,12.07
2023-04-03T19:06:28.428Z,13.15
2023-04-03T19:08:55.264Z,12.25
2023-04-03T19:11:23.186Z,12.02
2023-04-03T19:16:19.811Z,14.88
2023-04-03T19:18:46.522Z,13.63
2023-04-03T19:21:15.057Z,19.13
2023-04-03T19:23:44.876Z,18.35
2023-04-03T19:26:13.157Z,19.58
2023-04-03T19:28:41.702Z,19.63
2023-04-03T19:31:20.963Z,17.35
2023-04-03T19:33:48.341Z,15.10
2023-04-03T19:36:15.972Z,18.35
2023-04-03T19:38:43.194Z,13.18
2023-04-03T19:41:15.816Z,16.52
2023-04-03T19:43:42.692Z,14.73
2023-04-03T19:46:10.101Z,14.30
2023-04-03T19:48:36.877Z,11.00
2023-04-03T19:51:04.840Z,10.73
2023-04-03T19:53:31.985Z,11.43
2023-04-03T19:56:02.483Z,11.82
2023-04-03T19:58:30.104Z,15.52
2023-04-03T20:00:58.316Z,15.27
2023-04-03T20:03:25.528Z,18.27
2023-04-03T20:05:52.981Z,13.43
2023-04-03T20:08:20.019Z,11.73
2023-04-03T20:10:47.130Z,10.48
2023-04-03T20:13:14.047Z,12.02
2023-04-03T20:15:45.025Z,16.88
2023-04-03T20:18:18.226Z,13.05
2023-04-03T20:20:57.837Z,18.80
2023-04-03T20:23:25.337Z,11.98
2023-04-03T20:26:08.461Z,9.38
2023-04-03T20:28:38.188Z,8.25
2023-04-03T20:31:06.671Z,9.40
2023-04-03T20:33:34.057Z,9.32
2023-04-03T20:36:02.230Z,13.00
2023-04-03T20:38:28.911Z,11.57
2023-04-03T20:40:55.619Z,16.50
2023-04-03T20:43:23.420Z,15.45
2023-04-03T20:45:53.297Z,16.02
2023-04-03T20:48:20.101Z,11.32
2023-04-03T20:50:47.067Z,24.48
2023-04-03T20:53:15.222Z,20.75
2023-04-03T20:55:42.527Z,22.10
2023-04-03T20:58:09.970Z,19.05
2023-04-03T21:00:38.118Z,13.63
2023-04-03T21:03:06.015Z,10.70
2023-04-03T21:05:35.164Z,9.90
2023-04-03T21:08:40.358Z,8.68
2023-04-03T21:11:44.821Z,10.27
2023-04-03T21:14:49.070Z,16.02
2023-04-03T21:17:16.601Z,14.25
2023-04-03T21:19:46.521Z,14.48
2023-04-03T21:22:14.056Z,18.13
2023-04-03T21:24:40.810Z,15.00
2023-04-03T21:27:07.869Z,9.52
2023-04-03T21:29:34.514Z,13.02
2023-04-03T21:32:02.097Z,11.90
2023-04-03T21:34:30.356Z,15.05
2023-04-03T21:37:02.300Z,17.38
2023-04-03T21:39:29.634Z,10.88
2023-04-03T21:41:56.509Z,8.07
2023-04-03T21:44:24.115Z,11.10
2023-04-03T21:46:54.599Z,15.73
2023-04-03T21:49:22.608Z,17.90
2023-04-03T21:51:51.828Z,15.52
2023-04-03T21:54:18.876Z,10.57
2023-04-03T21:56:48.124Z,15.75
2023-04-03T21:59:17.390Z,12.50
2023-04-03T22:01:48.916Z,12.77
2023-04-03T22:04:16.520Z,14.82
2023-04-03T22:06:44.550Z,13.82
2023-04-03T22:09:11.504Z,16.20
2023-04-03T22:11:51.953Z,12.05
2023-04-03T22:14:19.305Z,8.88
2023-04-03T22:16:46.856Z,12.25
2023-04-03T22:19:14.839Z,13.75
2023-04-03T22:21:42.735Z,12.15
2023-04-03T22:24:09.514Z,10.07
2023-04-03T22:26:36.945Z,17.10
2023-04-03T22:29:03.833Z,20.23
2023-04-03T22:31:30.542Z,14.13
2023-04-03T22:33:57.267Z,10.13
2023-04-03T22:36:27.886Z,17.02
2023-04-03T22:38:54.616Z,19.85
2023-04-03T22:41:21.278Z,15.18
2023-04-03T22:43:48.071Z,13.50
2023-04-03T22:46:21.965Z,23.48
2023-04-03T22:48:48.728Z,13.27
2023-04-03T22:51:15.703Z,7.97
2023-04-03T22:53:42.468Z,12.38
2023-04-03T22:56:11.180Z,10.45
2023-04-03T22:58:40.360Z,15.48
2023-04-03T23:01:11.832Z,16.27
2023-04-03T23:03:40.222Z,20.20
2023-04-03T23:06:08.288Z,19.30
2023-04-03T23:08:38.020Z,14.27
2023-04-03T23:11:07.089Z,18.35
2023-04-03T23:13:34.144Z,14.30
2023-04-03T23:16:01.731Z,16.98
2023-04-03T23:18:31.181Z,14.23
2023-04-03T23:21:03.735Z,10.93
2023-04-03T23:23:30.965Z,11.60
2023-04-03T23:25:59.570Z,6.53
2023-04-03T23:28:32.580Z,6.32
2023-04-03T23:31:01.980Z,8.48
2023-04-03T23:33:33.059Z,7.05
2023-04-03T23:36:01.378Z,15.93
2023-04-03T23:38:28.450Z,15.50
2023-04-03T23:40:55.242Z,15.43
2023-04-03T23:43:22.314Z,16.58
2023-04-03T23:45:49.017Z,20.10
2023-04-03T23:48:15.948Z,18.45
2023-04-03T23:50:46.928Z,12.73
2023-04-03T23:53:13.670Z,14.88
2023-04-03T23:55:41.095Z,15.40
2023-04-03T23:58:07.759Z,13.95
